Flight Track Log - Related Links

Times and Time Zones

All times are in EDT time to prevent confusion due to time zone crossing. See the SWA303 flight status page for this flight to view local times or setup timezone preferences in your user account.

Time Position Orientation Groundspeed Altitude Reporting Facility
EDT Latitude Longitude Course Direction KTS MPH feet Rate Location/Type
Mon 03:04:39 PM 39.9000 -104.6667 37° Northeast 166 191 7,100  Level Denver TRACON
Mon 03:05:39 PM 39.9500 -104.6167 37° Northeast 230 265 9,300 1,500 Climbing Denver TRACON
Mon 03:06:39 PM 39.9500 -104.5000 90° East 311 358 10,100 1,450 Climbing Denver TRACON
Mon 03:07:39 PM 39.9500 -104.3833 90° East 351 404 12,200 2,674 Climbing Denver TRACON
Mon 03:08:11 PM 39.9344 -104.3083 105° East 357 411 14,200 3,000 Climbing Denver Center
Mon 03:09:13 PM 39.9089 -104.1778 104° East 376 433 16,900 2,613 Climbing Denver Center
Mon 03:10:15 PM 39.8881 -104.0367 101° East 397 457 19,600 2,390 Climbing Denver Center
Mon 03:11:16 PM 39.8725 -103.8708 97° East 432 497 21,800 2,195 Climbing Denver Center
Mon 03:12:18 PM 39.8833 -103.7300 84° East 431 496 24,100 1,887 Climbing Denver Center
Mon 03:13:20 PM 39.9056 -103.5372 81° East 459 528 25,700 1,500 Climbing Denver Center
Mon 03:14:22 PM 39.9261 -103.3564 82° East 501 577 27,200 1,463 Climbing Denver Center
Mon 03:15:23 PM 39.9475 -103.1669 82° East 521 600 28,700 1,463 Climbing Denver Center
Mon 03:16:25 PM 39.9606 -102.9675 85° East 545 627 30,200 1,500 Climbing Denver Center
Mon 03:17:27 PM 39.9686 -102.7628 87° East 560 644 31,800 1,839 Climbing Denver Center
Mon 03:18:29 PM 39.9786 -102.5567 86° East 556 640 34,000 2,000 Climbing Denver Center
Mon 03:19:30 PM 39.9881 -102.3692 86° East 546 628 35,900 1,561 Climbing Denver Center
Mon 03:20:32 PM 39.9989 -102.1553 86° East 535 616 37,200 1,324 Climbing Denver Center
Mon 03:21:46 PM 40.0053 -101.9689 87° East 537 618 38,900 794 Climbing Denver Center
Mon 03:22:48 PM 40.0128 -101.7317 88° East 518 596 39,000 48 Climbing Denver Center
Mon 03:23:50 PM 40.0219 -101.5269 87° East 511 588 39,000  Level Denver Center
Mon 03:25:03 PM 40.0267 -101.3492 88° East 513 590 39,000  Level Denver Center
Mon 03:26:05 PM 40.0336 -101.1119 88° East 513 590 39,000  Level Denver Center
Mon 03:27:07 PM 40.0394 -100.9361 87° East 512 589 39,000  Level Denver Center
Mon 03:28:09 PM 40.0450 -100.7303 88° East 510 587 39,000  Level Denver Center
Mon 03:29:11 PM 40.0508 -100.5558 87° East 507 583 39,000  Level Denver Center
Mon 03:30:12 PM 40.0567 -100.3492 88° East 513 590 39,000  Level Denver Center
Mon 03:31:14 PM 40.0600 -100.2014 88° East 514 592 39,000  Level Denver Center
Mon 03:32:16 PM 40.0653 -99.9644 88° East 513 590 39,000  Level Denver Center
Mon 03:33:18 PM 40.0694 -99.7722 88° East 516 594 39,000  Level Denver Center
Mon 03:34:19 PM 40.0733 -99.5872 88° East 513 590 39,000  Level Denver Center
Mon 03:35:21 PM 40.0767 -99.4044 89° East 507 583 39,000  Level Denver Center
Mon 03:36:23 PM 40.0794 -99.2211 89° East 507 583 39,000  Level Denver Center
Mon 03:37:25 PM 40.0836 -99.0378 88° East 507 583 39,000  Level Denver Center
Mon 03:38:26 PM 40.0853 -98.8531 89° East 510 587 39,000  Level Denver Center
Mon 03:39:25 PM 40.0867 -98.6672 89° East 512 589 39,000  Level Minneapolis Center
Mon 03:40:27 PM 40.0892 -98.4800 89° East 516 594 39,000  Level Minneapolis Center
Mon 03:41:28 PM 40.0914 -98.2933 89° East 516 594 39,000  Level Minneapolis Center
Mon 03:42:29 PM 40.0922 -98.0683 90° East 518 596 39,000  Level Minneapolis Center
Mon 03:43:31 PM 40.0939 -97.8833 89° East 514 592 39,000  Level Minneapolis Center
Mon 03:44:32 PM 40.0939 -97.6986 90° East 512 589 39,000  Level Minneapolis Center
Mon 03:45:34 PM 40.0950 -97.5142 89° East 510 587 39,000  Level Minneapolis Center
Mon 03:46:35 PM 40.0942 -97.3294 90° East 509 586 39,000  Level Minneapolis Center
Mon 03:47:37 PM 40.0944 -97.1547 90° East 507 583 39,000  Level Minneapolis Center
Mon 03:48:38 PM 40.0936 -96.9708 90° East 508 585 39,000  Level Minneapolis Center
Mon 03:49:40 PM 40.0933 -96.7483 90° East 511 588 39,000  Level Minneapolis Center
Mon 03:50:41 PM 40.0917 -96.5636 91° East 510 587 39,000  Level Minneapolis Center
Mon 03:51:43 PM 40.0908 -96.3781 90° East 512 589 39,000  Level Minneapolis Center
Mon 03:52:44 PM 40.0883 -96.1936 91° East 511 588 39,000  Level Minneapolis Center
Mon 03:53:46 PM 40.0858 -96.0103 91° East 509 586 39,000  Level Minneapolis Center
Mon 03:54:47 PM 40.0842 -95.8200 91° East 519 597 39,000  Level Minneapolis Center
Mon 03:55:48 PM 40.0819 -95.6347 91° East 516 594 39,000  Level Minneapolis Center
Mon 03:56:50 PM 40.0800 -95.4528 91° East 508 585 39,000  Level Minneapolis Center
Mon 03:57:51 PM 40.0753 -95.2356 92° East 504 580 39,000  Level Minneapolis Center
Mon 03:58:59 PM 40.0697 -95.0403 92° East 499 574 39,000  Level Kansas City Center
Mon 04:00:00 PM 40.0658 -94.8678 92° East 496 571 39,000  Level Kansas City Center
Mon 04:01:02 PM 40.0628 -94.6950 91° East 496 571 39,000  Level Kansas City Center
Mon 04:02:05 PM 40.0581 -94.4969 92° East 490 564 39,000  Level Kansas City Center
Mon 04:03:05 PM 40.0536 -94.3239 92° East 495 570 39,000  Level Kansas City Center
Mon 04:04:07 PM 40.0481 -94.1233 92° East 495 570 39,000  Level Kansas City Center
Mon 04:05:08 PM 40.0425 -93.9569 92° East 504 580 39,000  Level Kansas City Center
Mon 04:06:11 PM 40.0372 -93.7761 92° East 504 580 39,000  Level Kansas City Center
Mon 04:07:13 PM 40.0297 -93.5642 93° East 494 568 39,000  Level Kansas City Center
Mon 04:08:16 PM 40.0253 -93.3853 92° East 497 572 39,000  Level Kansas City Center
Mon 04:09:17 PM 40.0192 -93.2067 93° East 499 574 39,000  Level Kansas City Center
Mon 04:10:18 PM 40.0122 -93.0286 93° East 497 572 39,000  Level Kansas City Center
Mon 04:11:19 PM 40.0047 -92.8161 93° East 498 573 39,000  Level Kansas City Center
Mon 04:12:24 PM 39.9986 -92.6397 93° East 500 575 39,000  Level Kansas City Center
Mon 04:13:25 PM 39.9914 -92.4636 93° East 498 573 39,000  Level Kansas City Center
Mon 04:14:26 PM 39.9842 -92.2889 93° East 495 570 39,000  Level Kansas City Center
Mon 04:15:30 PM 39.9767 -92.1139 93° East 493 567 39,000  Level Kansas City Center
Mon 04:16:31 PM 39.9667 -91.9019 93° East 494 568 39,000  Level Kansas City Center
Mon 04:17:32 PM 39.9564 -91.7283 94° East 489 563 39,000  Level Kansas City Center
Mon 04:18:32 PM 39.9481 -91.5525 93° East 490 564 39,000  Level Kansas City Center
Mon 04:19:36 PM 39.9392 -91.3775 94° East 489 563 39,000  Level Kansas City Center
Mon 04:20:37 PM 39.9297 -91.2019 94° East 490 564 39,000  Level Kansas City Center
Mon 04:21:41 PM 39.9197 -90.9928 94° East 488 562 39,000  Level Kansas City Center
Mon 04:22:41 PM 39.9100 -90.8308 94° East 489 563 39,000  Level Kansas City Center
Mon 04:23:45 PM 39.9003 -90.6556 94° East 489 563 39,000  Level Kansas City Center
Mon 04:24:45 PM 39.8878 -90.4442 94° East 490 564 39,000  Level Kansas City Center
Mon 04:25:49 PM 39.8775 -90.2683 94° East 490 564 39,000  Level Kansas City Center
Mon 04:26:49 PM 39.8669 -90.0933 94° East 490 564 39,000  Level Kansas City Center
Mon 04:27:53 PM 39.8547 -89.9172 95° East 490 564 39,000  Level Kansas City Center
Mon 04:28:53 PM 39.8436 -89.7439 95° East 488 562 39,000  Level Kansas City Center
Mon 04:29:57 PM 39.8397 -89.5689 92° East 485 558 39,000  Level Kansas City Center
Mon 04:30:58 PM 39.8408 -89.3594 90° East 483 556 39,000  Level Kansas City Center
Mon 04:31:59 PM 39.8414 -89.1853 90° East 483 556 39,000  Level Kansas City Center
Mon 04:33:02 PM 39.8428 -89.0114 89° East 483 556 39,000  Level Kansas City Center
Mon 04:34:02 PM 39.8422 -88.8378 90° East 483 556 39,000  Level Kansas City Center
Mon 04:35:06 PM 39.8425 -88.6644 90° East 482 555 39,000  Level Kansas City Center
Mon 04:36:07 PM 39.8419 -88.4569 90° East 481 554 39,000  Level Kansas City Center
Mon 04:37:10 PM 39.8425 -88.2814 90° East 484 557 39,000  Level Kansas City Center
Mon 04:38:11 PM 39.8414 -88.0953 90° East 485 558 39,000  Level Kansas City Center
Mon 04:38:31 PM 39.8394 -88.0636 95° East 481 554 39,000  Level Indianapolis Center
Mon 04:39:33 PM 39.8372 -87.8528 91° East 483 556 39,000  Level Indianapolis Center
Mon 04:40:35 PM 39.8358 -87.6772 91° East 483 556 39,000  Level Indianapolis Center
Mon 04:41:37 PM 39.8333 -87.5025 91° East 483 556 39,000  Level Indianapolis Center
Mon 04:42:39 PM 39.8308 -87.3269 91° East 483 556 39,000  Level Indianapolis Center
Mon 04:43:41 PM 39.8289 -87.1519 91° East 481 554 39,000  Level Indianapolis Center
Mon 04:44:43 PM 39.8250 -86.9772 92° East 481 554 39,000  Level Indianapolis Center
Mon 04:45:45 PM 39.8231 -86.8031 91° East 480 552 39,000  Level Indianapolis Center
Mon 04:46:47 PM 39.8192 -86.6289 92° East 479 551 39,000  Level Indianapolis Center
Mon 04:47:49 PM 39.8150 -86.4203 91° East 478 550 39,000  Level Indianapolis Center
Mon 04:48:50 PM 39.8203 -86.2475 88° East 478 550 39,000  Level Indianapolis Center
Mon 04:49:52 PM 39.8317 -86.0758 85° East 475 547 39,000  Level Indianapolis Center
Mon 04:50:54 PM 39.8417 -85.9158 85° East 475 547 39,000  Level Indianapolis Center
Mon 04:51:56 PM 39.8489 -85.7422 87° East 476 548 39,000  Level Indianapolis Center
Mon 04:52:58 PM 39.8608 -85.5394 86° East 477 549 39,000  Level Indianapolis Center
Mon 04:54:00 PM 39.8708 -85.3656 86° East 478 550 39,000  Level Indianapolis Center
Mon 04:55:02 PM 39.8792 -85.1911 86° East 479 551 39,000  Level Indianapolis Center
Mon 04:56:04 PM 39.8886 -85.0158 86° East 480 552 39,000  Level Indianapolis Center
Mon 04:57:06 PM 39.8967 -84.8428 86° East 478 550 39,000  Level Indianapolis Center
Mon 04:58:07 PM 39.9039 -84.6694 87° East 476 548 39,000  Level Indianapolis Center
Mon 04:59:09 PM 39.9122 -84.4983 86° East 473 544 39,000  Level Indianapolis Center
Mon 05:00:11 PM 39.9208 -84.3258 86° East 472 543 39,000  Level Indianapolis Center
Mon 05:01:13 PM 39.9281 -84.1242 87° East 473 544 39,000  Level Indianapolis Center
Mon 05:02:15 PM 39.9358 -83.9511 87° East 473 544 39,000  Level Indianapolis Center
Mon 05:03:17 PM 39.9419 -83.7778 87° East 475 547 39,000  Level Indianapolis Center
Mon 05:04:19 PM 39.9472 -83.6033 88° East 472 543 39,000  Level Indianapolis Center
Mon 05:05:21 PM 39.9553 -83.4261 87° East 472 543 39,000  Level Indianapolis Center
Mon 05:06:23 PM 39.9617 -83.2511 87° East 474 545 39,000  Level Indianapolis Center
Mon 05:07:25 PM 39.9656 -83.0786 88° East 470 541 39,000  Level Indianapolis Center
Mon 05:08:26 PM 39.9694 -82.9075 88° East 468 539 39,000  Level Indianapolis Center
Mon 05:09:28 PM 39.9753 -82.7361 87° East 469 540 39,000  Level Indianapolis Center
Mon 05:10:30 PM 39.9806 -82.5661 88° East 468 539 39,000  Level Indianapolis Center
Mon 05:11:32 PM 39.9856 -82.3961 88° East 467 537 39,000  Level Indianapolis Center
Mon 05:12:34 PM 39.9903 -82.1958 88° East 471 542 39,000  Level Indianapolis Center
Mon 05:13:36 PM 39.9944 -82.0244 88° East 469 540 39,000  Level Indianapolis Center
Mon 05:14:38 PM 39.9978 -81.8511 89° East 474 545 39,000  Level Indianapolis Center
Mon 05:15:40 PM 40.0014 -81.6908 88° East 476 548 39,000  Level Indianapolis Center
Mon 05:16:42 PM 39.9908 -81.4908 94° East 473 544 39,000  Level Indianapolis Center
Mon 05:17:43 PM 39.9589 -81.3506 107° East 466 536 39,000  Level Indianapolis Center
Mon 05:18:45 PM 39.9203 -81.1892 107° East 465 535 39,000  Level Indianapolis Center
Mon 05:19:25 PM 39.8889 -81.0539 107° East 462 532 39,000  Level Cleveland Center
Mon 05:20:25 PM 39.8500 -80.8967 108° East 462 532 39,000  Level Cleveland Center
Mon 05:21:25 PM 39.8106 -80.7372 108° East 462 532 39,000  Level Cleveland Center
Mon 05:22:25 PM 39.7711 -80.5803 108° East 462 532 39,000  Level Cleveland Center
Mon 05:23:25 PM 39.7314 -80.4211 108° East 462 532 39,000 -318 Level Cleveland Center
Mon 05:24:56 PM 39.6708 -80.2003 110° East 463 533 38,200 -1,294 Descending Indianapolis Center
Mon 05:25:58 PM 39.6314 -80.0447 108° East 456 525 35,700 -2,773 Descending Indianapolis Center
Mon 05:26:55 PM 39.5933 -79.8897 108° East 451 519 32,700 -2,923 Descending Washington Center
Mon 05:27:55 PM 39.5550 -79.7339 108° East 451 519 30,000 -2,500 Descending Washington Center
Mon 05:28:55 PM 39.5142 -79.5836 109° East 451 519 27,700 -1,800 Descending Washington Center
Mon 05:29:55 PM 39.4836 -79.4367 105° East 438 504 26,400 -1,150 Descending Washington Center
Mon 05:30:55 PM 39.4569 -79.2900 103° East 427 491 25,400 -1,450 Descending Washington Center
Mon 05:31:55 PM 39.4264 -79.1275 104° East 422 486 23,500 -2,000 Descending Washington Center
Mon 05:32:55 PM 39.3992 -78.9892 104° East 412 474 21,400 -2,000 Descending Washington Center
Mon 05:33:55 PM 39.3758 -78.8536 103° East 395 455 19,500 -1,800 Descending Washington Center
Mon 05:34:55 PM 39.3522 -78.7211 103° East 388 447 17,800 -1,700 Descending Washington Center
Mon 05:35:55 PM 39.3303 -78.5942 103° East 372 428 16,100 -1,950 Descending Washington Center
Mon 05:36:55 PM 39.3064 -78.4669 104° East 367 422 13,900 -2,000 Descending Washington Center
Mon 05:37:55 PM 39.2736 -78.3503 110° East 355 409 12,100 -1,900 Descending Washington Center
Mon 05:38:55 PM 39.1981 -78.2886 148° Southeast 319 367 10,100 -1,100 Descending Washington Center
Mon 05:39:55 PM 39.1219 -78.2322 150° Southeast 312 359 9,900 -450 Descending Washington Center
Mon 05:40:55 PM 39.0544 -78.1792 149° Southeast 301 346 9,200 -1,050 Descending Washington Center
Mon 05:41:55 PM 38.9889 -78.1261 148° Southeast 285 328 7,800 -1,350 Descending Washington Center
Mon 05:42:55 PM 38.9272 -78.0786 149° Southeast 279 321 6,500 -950 Descending Washington Center
Mon 05:43:55 PM 38.8656 -78.0339 151° Southeast 266 306 5,900 -800 Descending Washington Center
Mon 05:44:55 PM 38.8019 -77.9864 150° Southeast 261 300 4,900 -500 Descending Washington Center
Mon 05:45:55 PM 38.7511 -77.9289 139° Southeast 261 300 4,900 -63 Level Washington Center
Mon 05:48:07 PM 38.7000 -77.7667 112° Southeast 220 253 4,700 -281 Descending Potomac TRACON
Mon 05:49:07 PM 38.6833 -77.6833 104° East 220 253 4,000 -347 Descending Potomac TRACON
Mon 05:50:08 PM 38.6833 -77.6167 90° East 222 255 4,000 -397 Level Potomac TRACON
Mon 05:51:08 PM 38.7000 -77.5333 76° East 218 251 3,200 -476 Descending Potomac TRACON
Mon 05:52:14 PM 38.7500 -77.4833 38° Northeast 218 251 3,000 -142 Descending Potomac TRACON
Mon 05:53:15 PM 38.8000 -77.4667 15° North 194 223 2,900 -496 Descending Potomac TRACON
Mon 05:54:15 PM 38.8500 -77.4667 360° North 182 209 2,000 -900 Descending Potomac TRACON
Mon 05:55:15 PM 38.9000 -77.4667 360° North 145 167 1,100 -900 Descending Potomac TRACON

Login

Don't have an account? Register now (free) for customized features, flight alerts, and more!